createdAt,value
2018-03-03T00:00:12.805Z,-0.94
2018-03-03T00:01:12.841Z,-0.94
2018-03-03T00:02:12.813Z,-0.95
2018-03-03T00:03:12.818Z,-0.91
2018-03-03T00:04:12.812Z,-0.9
2018-03-03T00:05:12.820Z,-0.91
2018-03-03T00:06:12.858Z,-0.9
2018-03-03T00:07:12.842Z,-0.9
2018-03-03T00:08:12.847Z,-0.89
2018-03-03T00:09:12.863Z,-0.93
2018-03-03T00:10:12.833Z,-0.9
2018-03-03T00:11:12.858Z,-0.88
2018-03-03T00:12:12.885Z,-0.87
2018-03-03T00:13:12.846Z,-0.84
2018-03-03T00:14:12.867Z,-0.83
2018-03-03T00:15:12.872Z,-0.83
2018-03-03T00:16:13.096Z,-0.83
2018-03-03T00:17:12.936Z,-0.83
2018-03-03T00:18:12.881Z,-0.82
2018-03-03T00:19:12.878Z,-0.84
2018-03-03T00:20:12.881Z,-0.84
2018-03-03T00:21:12.913Z,-0.87
2018-03-03T00:22:12.914Z,-0.86
2018-03-03T00:23:12.897Z,-0.85
2018-03-03T00:24:12.898Z,-0.88
2018-03-03T00:25:12.919Z,-0.89
2018-03-03T00:26:12.896Z,-0.88
2018-03-03T00:27:12.909Z,-0.88
2018-03-03T00:28:12.901Z,-0.88
2018-03-03T00:29:12.908Z,-0.88
2018-03-03T00:30:12.906Z,-0.89
2018-03-03T00:31:12.923Z,-0.91
2018-03-03T00:32:12.959Z,-0.91
2018-03-03T00:33:12.914Z,-0.93
2018-03-03T00:34:12.924Z,-0.89
2018-03-03T00:35:12.920Z,-0.9
2018-03-03T00:36:12.917Z,-0.9
2018-03-03T00:37:12.940Z,-0.9
2018-03-03T00:38:12.919Z,-0.9
2018-03-03T00:39:12.923Z,-0.9
2018-03-03T00:40:12.927Z,-0.9
2018-03-03T00:41:12.941Z,-0.93
2018-03-03T00:42:12.959Z,-0.89
2018-03-03T00:43:12.978Z,-0.9
2018-03-03T00:44:12.985Z,-0.89
2018-03-03T00:45:13.027Z,-0.9
2018-03-03T00:46:12.970Z,-0.89
2018-03-03T00:47:12.965Z,-0.91
2018-03-03T00:48:12.984Z,-0.89
2018-03-03T00:49:12.977Z,-0.88
2018-03-03T00:50:13.031Z,-0.88
2018-03-03T00:51:12.970Z,-0.84
2018-03-03T00:52:12.996Z,-0.84
2018-03-03T00:53:13.095Z,-0.8
2018-03-03T00:54:12.999Z,-0.82
2018-03-03T00:55:13.020Z,-0.83
2018-03-03T00:56:12.989Z,-0.84
2018-03-03T00:57:13.031Z,-0.83
2018-03-03T00:58:12.999Z,-0.84
2018-03-03T00:59:13.043Z,-0.83
2018-03-03T01:00:13.302Z,-0.83
2018-03-03T01:01:13.005Z,-0.84
2018-03-03T01:02:13.048Z,-0.84
2018-03-03T01:03:13.040Z,-0.82
2018-03-03T01:04:13.026Z,-0.85
2018-03-03T01:05:13.069Z,-0.83
2018-03-03T01:06:13.018Z,-0.84
2018-03-03T01:07:13.064Z,-0.83
2018-03-03T01:08:13.043Z,-0.82
2018-03-03T01:09:13.039Z,-0.82
2018-03-03T01:10:13.055Z,-0.82
2018-03-03T01:11:13.077Z,-0.82
2018-03-03T01:12:13.054Z,-0.81
2018-03-03T01:13:13.062Z,-0.82
2018-03-03T01:14:13.058Z,-0.79
2018-03-03T01:15:13.113Z,-0.77
2018-03-03T01:16:13.070Z,-0.8
2018-03-03T01:17:13.075Z,-0.8
2018-03-03T01:18:13.097Z,-0.79
2018-03-03T01:19:13.088Z,-0.82
2018-03-03T01:20:13.071Z,-0.8
2018-03-03T01:21:13.066Z,-0.81
2018-03-03T01:23:13.105Z,-0.81
2018-03-03T01:24:13.084Z,-0.78
2018-03-03T01:25:13.090Z,-0.81
2018-03-03T01:26:13.084Z,-0.81
2018-03-03T01:27:13.563Z,-0.78
2018-03-03T01:28:13.097Z,-0.76
2018-03-03T01:29:13.087Z,-0.75
2018-03-03T01:30:13.164Z,-0.76
2018-03-03T01:31:13.148Z,-0.76
2018-03-03T01:32:13.181Z,-0.76
2018-03-03T01:33:13.154Z,-0.76
2018-03-03T01:34:13.114Z,-0.73
2018-03-03T01:35:13.113Z,-0.76
2018-03-03T01:36:13.113Z,-0.77
2018-03-03T01:37:13.159Z,-0.77
2018-03-03T01:38:13.155Z,-0.75
2018-03-03T01:40:13.220Z,-0.72
2018-03-03T01:41:13.150Z,-0.73
2018-03-03T01:42:13.161Z,-0.75
2018-03-03T01:43:13.147Z,-0.75
2018-03-03T01:44:13.259Z,-0.75
2018-03-03T01:45:13.146Z,-0.74
2018-03-03T01:46:13.152Z,-0.73
2018-03-03T01:47:13.160Z,-0.75
2018-03-03T01:48:13.166Z,-0.74
2018-03-03T01:49:13.153Z,-0.71
2018-03-03T01:50:13.160Z,-0.74
2018-03-03T01:51:13.169Z,-0.74
2018-03-03T01:52:13.170Z,-0.72
2018-03-03T01:53:13.174Z,-0.73
2018-03-03T01:54:13.200Z,-0.75
2018-03-03T01:55:13.170Z,-0.73
2018-03-03T01:56:13.231Z,-0.75
2018-03-03T01:57:13.189Z,-0.76
2018-03-03T01:58:13.208Z,-0.75
2018-03-03T01:59:13.224Z,-0.76
2018-03-03T02:00:13.193Z,-0.77
2018-03-03T02:01:13.192Z,-0.76
2018-03-03T02:02:13.211Z,-0.78
2018-03-03T02:03:13.206Z,-0.77
2018-03-03T02:04:13.216Z,-0.76
2018-03-03T02:05:13.257Z,-0.77
2018-03-03T02:06:13.192Z,-0.76
2018-03-03T02:07:13.200Z,-0.76
2018-03-03T02:08:13.214Z,-0.76
2018-03-03T02:09:13.231Z,-0.75
2018-03-03T02:10:13.203Z,-0.75
2018-03-03T02:11:13.214Z,-0.75
2018-03-03T02:12:13.224Z,-0.74
2018-03-03T02:13:13.242Z,-0.74
2018-03-03T02:14:13.236Z,-0.72
2018-03-03T02:15:13.246Z,-0.74
2018-03-03T02:16:13.250Z,-0.73
2018-03-03T02:17:13.256Z,-0.75
2018-03-03T02:18:13.272Z,-0.75
2018-03-03T02:19:13.240Z,-0.73
2018-03-03T02:20:13.259Z,-0.72
2018-03-03T02:21:13.267Z,-0.74
2018-03-03T02:22:13.254Z,-0.71
2018-03-03T02:23:13.249Z,-0.74
2018-03-03T02:24:13.287Z,-0.7
2018-03-03T02:26:19.566Z,-0.7
2018-03-03T02:27:13.292Z,-0.69
2018-03-03T02:28:13.277Z,-0.69
2018-03-03T02:29:13.284Z,-0.69
2018-03-03T02:30:13.310Z,-0.68
2018-03-03T02:32:19.464Z,-0.66
2018-03-03T02:33:13.329Z,-0.64
2018-03-03T02:34:13.361Z,-0.63
2018-03-03T02:35:13.306Z,-0.63
2018-03-03T02:36:13.320Z,-0.63
2018-03-03T02:37:13.330Z,-0.64
2018-03-03T02:38:13.364Z,-0.65
2018-03-03T02:39:13.350Z,-0.64
2018-03-03T02:40:13.321Z,-0.64
2018-03-03T02:41:13.312Z,-0.64
2018-03-03T02:42:13.371Z,-0.64
2018-03-03T02:43:13.377Z,-0.63
2018-03-03T02:44:13.334Z,-0.63
2018-03-03T02:45:13.382Z,-0.59
2018-03-03T02:46:13.428Z,-0.57
2018-03-03T02:47:13.602Z,-0.53
2018-03-03T02:48:13.407Z,-0.52
2018-03-03T02:49:20.308Z,-0.52
2018-03-03T02:50:13.334Z,-0.57
2018-03-03T02:51:13.313Z,-0.57
2018-03-03T02:52:13.348Z,-0.57
2018-03-03T02:53:13.359Z,-0.55
2018-03-03T02:54:13.444Z,-0.57
2018-03-03T02:55:13.384Z,-0.58
2018-03-03T02:56:13.356Z,-0.59
2018-03-03T02:57:13.339Z,-0.57
2018-03-03T02:58:13.694Z,-0.59
2018-03-03T02:59:13.394Z,-0.64
2018-03-03T03:00:13.372Z,-0.66
2018-03-03T03:01:13.391Z,-0.65
2018-03-03T03:02:13.386Z,-0.61
2018-03-03T03:03:13.404Z,-0.64
2018-03-03T03:04:13.382Z,-0.67
2018-03-03T03:05:13.383Z,-0.73
2018-03-03T03:06:13.374Z,-0.76
2018-03-03T03:07:13.376Z,-0.75
2018-03-03T03:08:13.408Z,-0.71
2018-03-03T03:09:13.387Z,-0.71
2018-03-03T03:10:13.410Z,-0.8
2018-03-03T03:11:13.373Z,-0.83
2018-03-03T03:12:13.384Z,-0.82
2018-03-03T03:13:13.376Z,-0.81
2018-03-03T03:14:13.395Z,-0.78
2018-03-03T03:15:13.393Z,-0.81
2018-03-03T03:16:13.432Z,-0.79
2018-03-03T03:17:13.404Z,-0.83
2018-03-03T03:18:13.405Z,-0.81
2018-03-03T03:19:13.437Z,-0.81
2018-03-03T03:20:13.397Z,-0.81
2018-03-03T03:21:13.400Z,-0.84
2018-03-03T03:22:13.410Z,-0.89
2018-03-03T03:23:13.417Z,-0.91
2018-03-03T03:24:13.442Z,-0.93
2018-03-03T03:25:13.409Z,-0.91
2018-03-03T03:26:13.443Z,-0.95
2018-03-03T03:27:13.420Z,-0.92
2018-03-03T03:29:13.597Z,-0.9
2018-03-03T03:30:13.447Z,-0.88
2018-03-03T03:31:13.470Z,-0.87
2018-03-03T03:32:13.446Z,-0.86
2018-03-03T03:33:13.466Z,-0.84
2018-03-03T03:34:13.448Z,-0.85
2018-03-03T03:35:13.446Z,-0.82
2018-03-03T03:36:13.486Z,-0.8
2018-03-03T03:37:13.458Z,-0.8
2018-03-03T03:38:13.469Z,-0.8
2018-03-03T03:39:13.463Z,-0.78
2018-03-03T03:40:13.485Z,-0.79
2018-03-03T03:41:13.506Z,-0.75
2018-03-03T03:42:13.530Z,-0.74
2018-03-03T03:43:13.492Z,-0.76
2018-03-03T03:44:13.495Z,-0.77
2018-03-03T03:45:13.480Z,-0.77
2018-03-03T03:46:13.559Z,-0.76
2018-03-03T03:47:13.514Z,-0.76
2018-03-03T03:48:13.505Z,-0.74
2018-03-03T03:49:13.495Z,-0.83
2018-03-03T03:50:13.514Z,-0.85
2018-03-03T03:51:13.513Z,-0.91
2018-03-03T03:52:13.527Z,-0.94
2018-03-03T03:53:13.528Z,-0.94
2018-03-03T03:54:13.531Z,-0.94
2018-03-03T03:55:13.663Z,-0.91
2018-03-03T03:56:13.538Z,-0.94
2018-03-03T03:57:13.528Z,-0.9
2018-03-03T03:58:13.555Z,-0.88
2018-03-03T03:59:13.524Z,-0.87
2018-03-03T04:00:13.523Z,-0.83
2018-03-03T04:01:13.539Z,-0.86
2018-03-03T04:02:13.528Z,-0.84
2018-03-03T04:03:13.539Z,-0.82
2018-03-03T04:04:13.947Z,-0.82
2018-03-03T04:05:13.550Z,-0.82
2018-03-03T04:06:13.550Z,-0.82
2018-03-03T04:07:13.580Z,-0.82
2018-03-03T04:08:13.561Z,-0.81
2018-03-03T04:09:13.578Z,-0.81
2018-03-03T04:10:13.578Z,-0.8
2018-03-03T04:11:13.584Z,-0.78
2018-03-03T04:12:13.560Z,-0.8
2018-03-03T04:13:13.571Z,-0.79
2018-03-03T04:14:13.635Z,-0.8
2018-03-03T04:15:13.641Z,-0.82
2018-03-03T04:16:13.590Z,-0.83
2018-03-03T04:17:13.613Z,-0.82
2018-03-03T04:18:13.616Z,-0.8
2018-03-03T04:19:13.608Z,-0.78
2018-03-03T04:20:13.672Z,-0.82
2018-03-03T04:21:13.639Z,-0.82
2018-03-03T04:22:13.614Z,-0.83
2018-03-03T04:23:13.639Z,-0.83
2018-03-03T04:24:13.644Z,-0.82
2018-03-03T04:25:13.627Z,-0.8
2018-03-03T04:26:13.613Z,-0.82
2018-03-03T04:27:13.642Z,-0.84
2018-03-03T04:28:13.668Z,-0.83
2018-03-03T04:29:13.642Z,-0.82
2018-03-03T04:30:13.640Z,-0.87
2018-03-03T04:31:13.636Z,-0.9
2018-03-03T04:32:13.648Z,-0.95
2018-03-03T04:33:13.638Z,-0.94
2018-03-03T04:34:13.704Z,-0.9
2018-03-03T04:35:13.671Z,-0.88
2018-03-03T04:36:13.652Z,-0.87
2018-03-03T04:37:13.667Z,-0.9
2018-03-03T04:38:13.677Z,-0.88
2018-03-03T04:39:13.688Z,-0.91
2018-03-03T04:40:13.678Z,-0.88
2018-03-03T04:41:13.691Z,-0.87
2018-03-03T04:42:13.683Z,-0.87
2018-03-03T04:44:13.755Z,-0.9
2018-03-03T04:45:13.700Z,-0.93
2018-03-03T04:46:13.710Z,-0.94
2018-03-03T04:47:13.708Z,-0.96
2018-03-03T04:48:14.212Z,-0.94
2018-03-03T04:49:14.844Z,-0.94
2018-03-03T04:50:13.706Z,-0.96
2018-03-03T04:51:13.721Z,-0.95
2018-03-03T04:52:13.736Z,-0.93
2018-03-03T04:53:13.733Z,-0.92
2018-03-03T04:54:13.746Z,-0.9
2018-03-03T04:55:13.717Z,-0.91
2018-03-03T04:56:13.717Z,-0.91
2018-03-03T04:57:13.730Z,-0.96
2018-03-03T04:58:13.734Z,-0.92
2018-03-03T04:59:13.739Z,-0.93
2018-03-03T05:00:13.737Z,-0.91
2018-03-03T05:01:13.827Z,-0.93
2018-03-03T05:02:13.793Z,-0.93
2018-03-03T05:03:13.739Z,-0.94
2018-03-03T05:04:13.730Z,-0.93
2018-03-03T05:05:13.749Z,-0.94
2018-03-03T05:06:13.757Z,-0.98
2018-03-03T05:07:13.739Z,-1.01
2018-03-03T05:08:13.746Z,-1.06
2018-03-03T05:09:13.742Z,-1.03
2018-03-03T05:10:13.747Z,-1.05
2018-03-03T05:12:13.893Z,-1.02
2018-03-03T05:13:13.763Z,-0.97
2018-03-03T05:14:14.806Z,-1
2018-03-03T05:15:13.758Z,-1.03
2018-03-03T05:16:13.752Z,-1.09
2018-03-03T05:17:13.770Z,-1.08
2018-03-03T05:18:14.175Z,-1.12
2018-03-03T05:19:13.792Z,-1.13
2018-03-03T05:20:13.789Z,-1.11
2018-03-03T05:21:13.802Z,-1.07
2018-03-03T05:22:13.799Z,-1.05
2018-03-03T05:23:13.790Z,-1
2018-03-03T05:24:13.866Z,-0.99
2018-03-03T05:25:13.821Z,-1
2018-03-03T05:26:13.828Z,-1
2018-03-03T05:27:13.812Z,-1.04
2018-03-03T05:28:13.812Z,-1.06
2018-03-03T05:29:13.820Z,-1.05
2018-03-03T05:30:13.833Z,-1.04
2018-03-03T05:31:13.864Z,-1.01
2018-03-03T05:32:13.927Z,-1
2018-03-03T05:33:13.878Z,-0.99
2018-03-03T05:34:13.860Z,-0.99
2018-03-03T05:35:13.893Z,-1.03
2018-03-03T05:36:13.870Z,-1.08
2018-03-03T05:37:13.861Z,-1.08
2018-03-03T05:38:13.865Z,-1.06
2018-03-03T05:39:13.862Z,-1.02
2018-03-03T05:40:13.866Z,-1
2018-03-03T05:41:13.865Z,-1
2018-03-03T05:42:13.921Z,-0.98
2018-03-03T05:43:13.878Z,-0.96
2018-03-03T05:44:13.860Z,-0.93
2018-03-03T05:45:13.889Z,-0.94
2018-03-03T05:46:13.877Z,-0.98
2018-03-03T05:47:13.904Z,-1.02
2018-03-03T05:48:13.923Z,-1.02
2018-03-03T05:49:13.890Z,-1
2018-03-03T05:50:13.890Z,-0.97
2018-03-03T05:51:13.903Z,-0.97
2018-03-03T05:52:13.917Z,-0.96
2018-03-03T05:53:13.908Z,-0.96
2018-03-03T05:54:13.894Z,-0.96
2018-03-03T05:55:13.892Z,-0.97
2018-03-03T05:56:13.926Z,-0.95
2018-03-03T05:57:13.917Z,-0.93
2018-03-03T05:58:13.925Z,-0.92
2018-03-03T05:59:14.317Z,-0.92
2018-03-03T06:00:13.911Z,-0.88
2018-03-03T06:01:13.898Z,-0.88
2018-03-03T06:02:13.895Z,-0.89
2018-03-03T06:03:13.928Z,-0.88
2018-03-03T06:04:13.900Z,-0.88
2018-03-03T06:05:13.921Z,-0.84
2018-03-03T06:06:13.921Z,-0.87
2018-03-03T06:07:13.971Z,-0.83
2018-03-03T06:08:13.941Z,-0.85
2018-03-03T06:09:13.934Z,-0.83
2018-03-03T06:10:13.950Z,-0.82
2018-03-03T06:11:13.949Z,-0.81
2018-03-03T06:12:13.964Z,-0.79
2018-03-03T06:13:13.951Z,-0.76
2018-03-03T06:14:14.194Z,-0.76
2018-03-03T06:15:13.953Z,-0.77
2018-03-03T06:16:13.959Z,-0.77
2018-03-03T06:17:13.947Z,-0.76
2018-03-03T06:18:13.960Z,-0.77
2018-03-03T06:19:13.963Z,-0.8
2018-03-03T06:20:13.960Z,-0.83
2018-03-03T06:21:13.981Z,-0.84
2018-03-03T06:22:13.964Z,-0.82
2018-03-03T06:23:13.988Z,-0.88
2018-03-03T06:24:13.967Z,-0.87
2018-03-03T06:25:13.999Z,-0.84
2018-03-03T06:26:13.998Z,-0.85
2018-03-03T06:27:13.985Z,-0.84
2018-03-03T06:28:13.998Z,-0.9
2018-03-03T06:29:14.007Z,-0.94
2018-03-03T06:30:14.055Z,-0.96
2018-03-03T06:31:13.988Z,-0.98
2018-03-03T06:32:14.005Z,-1
2018-03-03T06:33:14.010Z,-0.95
2018-03-03T06:34:14.040Z,-0.94
2018-03-03T06:35:13.997Z,-0.92
2018-03-03T06:36:14.020Z,-0.92
2018-03-03T06:37:14.081Z,-0.94
2018-03-03T06:38:14.033Z,-0.96
2018-03-03T06:39:14.046Z,-0.98
2018-03-03T06:40:14.066Z,-0.99
2018-03-03T06:41:14.042Z,-0.99
2018-03-03T06:42:14.031Z,-0.95
2018-03-03T06:44:20.413Z,-0.95
2018-03-03T06:45:14.049Z,-0.95
2018-03-03T06:46:14.462Z,-0.92
2018-03-03T06:47:14.053Z,-0.9
2018-03-03T06:48:14.050Z,-0.86
2018-03-03T06:49:14.052Z,-0.87
2018-03-03T06:50:14.065Z,-0.86
2018-03-03T06:51:14.121Z,-0.89
2018-03-03T06:52:14.050Z,-0.85
2018-03-03T06:53:14.051Z,-0.88
2018-03-03T06:54:14.087Z,-0.87
2018-03-03T06:55:14.070Z,-0.83
2018-03-03T06:56:14.092Z,-0.81
2018-03-03T06:57:14.077Z,-0.81
2018-03-03T06:58:14.068Z,-0.78
2018-03-03T06:59:14.066Z,-0.82
2018-03-03T07:00:14.204Z,-0.87
2018-03-03T07:01:14.080Z,-0.85
2018-03-03T07:02:14.112Z,-0.82
2018-03-03T07:03:14.100Z,-0.8
2018-03-03T07:04:14.095Z,-0.77
2018-03-03T07:05:14.098Z,-0.75
2018-03-03T07:06:14.078Z,-0.76
2018-03-03T07:07:14.084Z,-0.75
2018-03-03T07:08:14.112Z,-0.75
2018-03-03T07:09:14.112Z,-0.74
2018-03-03T07:10:14.713Z,-0.7
2018-03-03T07:11:14.120Z,-0.69
2018-03-03T07:12:14.116Z,-0.7
2018-03-03T07:13:14.144Z,-0.69
2018-03-03T07:14:14.147Z,-0.67
2018-03-03T07:15:14.148Z,-0.63
2018-03-03T07:16:14.121Z,-0.61
2018-03-03T07:17:14.205Z,-0.57
2018-03-03T07:18:14.144Z,-0.57
2018-03-03T07:19:14.155Z,-0.57
2018-03-03T07:20:14.252Z,-0.56
2018-03-03T07:21:14.248Z,-0.52
2018-03-03T07:22:14.180Z,-0.5
2018-03-03T07:23:14.198Z,-0.45
2018-03-03T07:24:14.176Z,-0.45
2018-03-03T07:25:14.213Z,-0.42
2018-03-03T07:26:14.155Z,-0.44
2018-03-03T07:27:14.168Z,-0.42
2018-03-03T07:28:14.167Z,-0.43
2018-03-03T07:29:14.188Z,-0.41
2018-03-03T07:30:14.209Z,-0.39
2018-03-03T07:31:14.195Z,-0.38
2018-03-03T07:32:14.199Z,-0.37
2018-03-03T07:33:14.199Z,-0.33
2018-03-03T07:34:14.198Z,-0.29
2018-03-03T07:35:14.302Z,-0.27
2018-03-03T07:36:14.210Z,-0.27
2018-03-03T07:37:14.195Z,-0.25
2018-03-03T07:38:14.213Z,-0.22
2018-03-03T07:39:14.245Z,-0.24
2018-03-03T07:40:14.234Z,-0.19
2018-03-03T07:41:14.225Z,-0.17
2018-03-03T07:42:14.229Z,-0.18
2018-03-03T07:43:14.272Z,-0.15
2018-03-03T07:44:14.236Z,-0.13
2018-03-03T07:45:14.248Z,-0.13
2018-03-03T07:46:14.241Z,-0.08
2018-03-03T07:47:14.234Z,-0.07
2018-03-03T07:48:14.230Z,-0.04
2018-03-03T07:49:14.253Z,-0.05
2018-03-03T07:50:14.249Z,-0.05
2018-03-03T07:51:14.269Z,-0.08
2018-03-03T07:52:14.446Z,-0.08
2018-03-03T07:53:14.273Z,-0.06
2018-03-03T07:54:14.279Z,-0.04
2018-03-03T07:55:14.324Z,-0.01
2018-03-03T07:56:14.269Z,0.01
2018-03-03T07:57:14.298Z,0.04
2018-03-03T07:58:14.269Z,0.05
2018-03-03T07:59:14.288Z,0.09
2018-03-03T08:00:14.416Z,0.09
2018-03-03T08:01:14.301Z,0.14
2018-03-03T08:02:14.310Z,0.11
2018-03-03T08:03:14.314Z,0.15
2018-03-03T08:04:14.311Z,0.17
2018-03-03T08:05:14.405Z,0.17
2018-03-03T08:06:14.321Z,0.18
2018-03-03T08:07:14.324Z,0.17
2018-03-03T08:08:14.333Z,0.15
2018-03-03T08:09:14.338Z,0.18
2018-03-03T08:10:14.330Z,0.18
2018-03-03T08:11:14.353Z,0.19
2018-03-03T08:12:14.354Z,0.19
2018-03-03T08:13:14.341Z,0.21
2018-03-03T08:14:14.373Z,0.26
2018-03-03T08:15:14.348Z,0.26
2018-03-03T08:16:14.408Z,0.3
2018-03-03T08:17:14.364Z,0.3
2018-03-03T08:19:14.382Z,0.33
2018-03-03T08:20:14.376Z,0.36
2018-03-03T08:21:14.396Z,0.37
2018-03-03T08:22:14.388Z,0.39
2018-03-03T08:23:14.393Z,0.39
2018-03-03T08:24:14.435Z,0.41
2018-03-03T08:25:14.486Z,0.44
2018-03-03T08:26:14.415Z,0.45
2018-03-03T08:27:14.436Z,0.49
2018-03-03T08:28:14.391Z,0.5
2018-03-03T08:29:14.414Z,0.5
2018-03-03T08:30:14.420Z,0.54
2018-03-03T08:31:14.406Z,0.55
2018-03-03T08:32:14.413Z,0.55
2018-03-03T08:33:14.409Z,0.55
2018-03-03T08:34:14.403Z,0.55
2018-03-03T08:35:14.426Z,0.56
2018-03-03T08:36:14.425Z,0.58
2018-03-03T08:37:14.401Z,0.64
2018-03-03T08:38:14.418Z,0.66
2018-03-03T08:39:14.464Z,0.67
2018-03-03T08:40:14.422Z,0.69
2018-03-03T08:41:14.419Z,0.73
2018-03-03T08:42:14.438Z,0.74
2018-03-03T08:43:14.419Z,0.74
2018-03-03T08:46:14.503Z,0.79
2018-03-03T08:47:14.432Z,0.8
2018-03-03T08:48:14.447Z,0.85
2018-03-03T08:49:14.751Z,0.85
2018-03-03T08:51:20.933Z,0.8
2018-03-03T08:52:14.511Z,0.81
2018-03-03T08:53:14.482Z,0.85
2018-03-03T08:54:14.478Z,0.85
2018-03-03T08:55:14.446Z,0.86
2018-03-03T08:56:14.468Z,0.87
2018-03-03T08:57:14.786Z,0.87
2018-03-03T08:58:14.484Z,0.9
2018-03-03T08:59:14.505Z,0.92
2018-03-03T09:00:14.469Z,0.92
2018-03-03T09:01:14.613Z,0.92
2018-03-03T09:02:14.503Z,0.93
2018-03-03T09:03:14.500Z,0.95
2018-03-03T09:04:14.501Z,0.97
2018-03-03T09:05:14.549Z,0.98
2018-03-03T09:06:14.596Z,0.99
2018-03-03T09:07:14.512Z,0.99
2018-03-03T09:08:14.504Z,1.01
2018-03-03T09:09:14.498Z,1
2018-03-03T09:10:14.509Z,1.01
2018-03-03T09:11:14.519Z,1.03
2018-03-03T09:12:14.537Z,1.07
2018-03-03T09:13:14.506Z,1.1
2018-03-03T09:14:14.517Z,1.12
2018-03-03T09:15:14.519Z,1.12
2018-03-03T09:16:14.590Z,1.17
2018-03-03T09:17:14.532Z,1.18
2018-03-03T09:18:14.546Z,1.2
2018-03-03T09:19:14.573Z,1.24
2018-03-03T09:20:14.558Z,1.24
2018-03-03T09:21:14.579Z,1.27
2018-03-03T09:22:14.633Z,1.27
2018-03-03T09:23:14.585Z,1.3
2018-03-03T09:24:14.597Z,1.34
2018-03-03T09:25:14.720Z,1.34
2018-03-03T09:26:14.587Z,1.35
2018-03-03T09:27:14.576Z,1.37
2018-03-03T09:28:14.581Z,1.41
2018-03-03T09:29:14.563Z,1.43
2018-03-03T09:30:14.744Z,1.44
2018-03-03T09:31:14.577Z,1.45
2018-03-03T09:32:14.637Z,1.48
2018-03-03T09:33:14.584Z,1.49
2018-03-03T09:34:14.589Z,1.52
2018-03-03T09:35:14.625Z,1.53
2018-03-03T09:36:15.369Z,1.56
2018-03-03T09:37:14.583Z,1.58
2018-03-03T09:38:14.618Z,1.61
2018-03-03T09:39:14.643Z,1.65
2018-03-03T09:40:14.661Z,1.69
2018-03-03T09:41:14.592Z,1.73
2018-03-03T09:42:14.624Z,1.77
2018-03-03T09:43:14.590Z,1.84
2018-03-03T09:44:14.744Z,1.9
2018-03-03T09:45:14.626Z,1.99
2018-03-03T09:46:14.771Z,2.09
2018-03-03T09:47:14.681Z,2.11
2018-03-03T09:48:14.632Z,2.17
2018-03-03T09:49:14.665Z,2.27
2018-03-03T09:50:14.685Z,2.3
2018-03-03T09:51:14.644Z,2.35
2018-03-03T09:52:14.635Z,2.37
2018-03-03T09:53:14.881Z,2.43
2018-03-03T09:54:14.655Z,2.46
2018-03-03T09:55:14.662Z,2.5
2018-03-03T09:56:14.669Z,2.54
2018-03-03T09:57:14.663Z,2.6
2018-03-03T09:58:14.662Z,2.64
2018-03-03T09:59:14.668Z,2.65
2018-03-03T10:00:14.661Z,2.69
2018-03-03T10:01:14.661Z,2.7
2018-03-03T10:02:14.704Z,2.76
2018-03-03T10:03:14.672Z,2.76
2018-03-03T10:04:14.685Z,2.71
2018-03-03T10:05:14.681Z,2.72
2018-03-03T10:06:14.736Z,2.77
2018-03-03T10:07:14.716Z,2.75
2018-03-03T10:08:14.703Z,2.74
2018-03-03T10:09:14.714Z,2.8
2018-03-03T10:10:14.697Z,2.8
2018-03-03T10:11:14.699Z,2.78
2018-03-03T10:12:14.716Z,2.68
2018-03-03T10:13:14.690Z,2.68
2018-03-03T10:14:14.698Z,2.7
2018-03-03T10:15:14.894Z,2.63
2018-03-03T10:16:15.077Z,2.6
2018-03-03T10:17:14.839Z,2.6
2018-03-03T10:18:14.734Z,2.52
2018-03-03T10:19:14.734Z,2.4
2018-03-03T10:20:14.755Z,2.49
2018-03-03T10:21:14.732Z,2.47
2018-03-03T10:22:14.787Z,2.49
2018-03-03T10:23:14.752Z,2.53
2018-03-03T10:24:14.750Z,2.59
2018-03-03T10:25:14.903Z,2.58
2018-03-03T10:26:14.957Z,2.62
2018-03-03T10:27:15.153Z,2.67
2018-03-03T10:28:14.826Z,2.68
2018-03-03T10:29:14.792Z,2.72
2018-03-03T10:30:14.793Z,2.71
2018-03-03T10:31:14.806Z,2.57
2018-03-03T10:32:14.800Z,2.58
2018-03-03T10:33:14.766Z,2.55
2018-03-03T10:34:14.777Z,2.54
2018-03-03T10:35:14.869Z,2.58
2018-03-03T10:36:14.826Z,2.59
2018-03-03T10:38:14.872Z,2.51
2018-03-03T10:39:14.818Z,2.59
2018-03-03T10:40:14.816Z,2.61
2018-03-03T10:41:14.822Z,2.65
2018-03-03T10:42:14.831Z,2.68
2018-03-03T10:43:15.096Z,2.73
2018-03-03T10:44:21.806Z,2.67
2018-03-03T10:45:14.819Z,2.64
2018-03-03T10:47:21.081Z,2.65
2018-03-03T10:48:14.853Z,2.72
2018-03-03T10:49:14.829Z,2.73
2018-03-03T10:50:14.840Z,2.77
2018-03-03T10:51:14.852Z,2.79
2018-03-03T10:52:14.880Z,2.84
2018-03-03T10:53:14.854Z,2.88
2018-03-03T10:54:15.720Z,2.99
2018-03-03T10:55:14.875Z,3.06
2018-03-03T10:58:14.977Z,3.29
2018-03-03T10:59:14.871Z,3.28
2018-03-03T11:00:14.901Z,3.35
2018-03-03T11:01:14.870Z,3.43
2018-03-03T11:02:14.922Z,3.51
2018-03-03T11:03:14.884Z,3.61
2018-03-03T11:04:14.876Z,3.67
2018-03-03T11:05:14.918Z,3.69
2018-03-03T11:06:14.931Z,3.67
2018-03-03T11:07:14.890Z,3.7
2018-03-03T11:08:15.002Z,3.74
2018-03-03T11:09:14.923Z,3.85
2018-03-03T11:10:14.909Z,3.93
2018-03-03T11:11:17.286Z,3.91
2018-03-03T11:12:15.012Z,3.98
2018-03-03T11:13:14.951Z,3.97
2018-03-03T11:14:14.929Z,4.03
2018-03-03T11:15:14.968Z,3.97
2018-03-03T11:16:14.950Z,4.02
2018-03-03T11:17:14.960Z,3.99
2018-03-03T11:18:14.964Z,4.02
2018-03-03T11:19:14.962Z,4.09
2018-03-03T11:20:14.982Z,4.07
2018-03-03T11:21:14.970Z,4.06
2018-03-03T11:22:15.095Z,4.08
2018-03-03T11:23:14.983Z,4.07
2018-03-03T11:24:14.954Z,4.09
2018-03-03T11:25:14.976Z,4.21
2018-03-03T11:26:15.331Z,4.26
2018-03-03T11:28:27.290Z,4.43
2018-03-03T11:29:15.023Z,4.54
2018-03-03T11:30:14.963Z,4.57
2018-03-03T11:31:14.995Z,4.63
2018-03-03T11:32:14.990Z,4.63
2018-03-03T11:33:15.015Z,4.75
2018-03-03T11:34:14.994Z,4.77
2018-03-03T11:35:14.990Z,4.82
2018-03-03T11:36:15.061Z,4.9
2018-03-03T11:37:15.037Z,5.03
2018-03-03T11:38:14.988Z,5.08
2018-03-03T11:39:15.022Z,4.88
2018-03-03T11:40:15.020Z,4.89
2018-03-03T11:41:15.053Z,5.01
2018-03-03T11:42:15.022Z,5.09
2018-03-03T11:43:15.015Z,5.18
2018-03-03T11:44:15.005Z,5.22
2018-03-03T11:45:15.018Z,5.27
2018-03-03T11:46:15.447Z,5.24
2018-03-03T11:47:15.021Z,5.3
2018-03-03T11:48:15.003Z,5.29
2018-03-03T11:49:15.028Z,5.3
2018-03-03T11:50:15.052Z,5.26
2018-03-03T11:51:15.018Z,5.21
2018-03-03T11:52:15.027Z,5.14
2018-03-03T11:53:15.020Z,5.11
2018-03-03T11:54:15.039Z,5.1
2018-03-03T11:55:15.037Z,5.06
2018-03-03T11:56:15.071Z,5.04
2018-03-03T11:57:15.059Z,5.07
2018-03-03T11:58:15.320Z,5.11
2018-03-03T11:59:15.129Z,5.1
2018-03-03T12:00:15.067Z,5.2
2018-03-03T12:01:15.056Z,5.3
2018-03-03T12:02:15.066Z,5.36
2018-03-03T12:03:15.070Z,5.41
2018-03-03T12:04:15.105Z,5.45
2018-03-03T12:05:15.109Z,5.46
2018-03-03T12:06:15.091Z,5.52
2018-03-03T12:07:15.175Z,5.58
2018-03-03T12:08:15.140Z,5.53
2018-03-03T12:09:15.137Z,5.46
2018-03-03T12:10:15.136Z,5.42
2018-03-03T12:11:15.099Z,5.46
2018-03-03T12:12:15.123Z,5.48
2018-03-03T12:13:15.164Z,5.33
2018-03-03T12:14:15.181Z,5.29
2018-03-03T12:15:15.122Z,5.27
2018-03-03T12:16:15.135Z,5.3
2018-03-03T12:17:15.218Z,5.35
2018-03-03T12:18:15.139Z,5.42
2018-03-03T12:19:15.125Z,5.48
2018-03-03T12:20:15.131Z,5.58
2018-03-03T12:21:15.105Z,5.62
2018-03-03T12:22:15.609Z,5.51
2018-03-03T12:23:15.114Z,5.52
2018-03-03T12:24:15.174Z,5.63
2018-03-03T12:25:15.120Z,5.76
2018-03-03T12:26:15.131Z,5.87
2018-03-03T12:27:15.166Z,5.98
2018-03-03T12:28:15.187Z,6.08
2018-03-03T12:29:15.144Z,6.15
2018-03-03T12:30:15.151Z,6.13
2018-03-03T12:31:15.161Z,5.99
2018-03-03T12:32:15.167Z,6.01
2018-03-03T12:33:15.172Z,6.02
2018-03-03T12:34:15.169Z,5.97
2018-03-03T12:35:15.218Z,5.89
2018-03-03T12:36:15.200Z,5.88
2018-03-03T12:37:15.164Z,5.95
2018-03-03T12:38:15.215Z,6.07
2018-03-03T12:39:15.172Z,6.01
2018-03-03T12:40:41.482Z,6.02
2018-03-03T12:41:18.130Z,6.12
2018-03-03T12:42:15.204Z,6.06
2018-03-03T12:43:15.219Z,6.02
2018-03-03T12:44:15.273Z,6.02
2018-03-03T12:45:15.261Z,6.1
2018-03-03T12:46:15.220Z,6.13
2018-03-03T12:47:15.594Z,6.16
2018-03-03T12:48:15.245Z,6.22
2018-03-03T12:49:15.253Z,6.25
2018-03-03T12:50:15.299Z,6.25
2018-03-03T12:51:15.249Z,6.2
2018-03-03T12:52:15.321Z,6.26
2018-03-03T12:53:15.294Z,6.37
2018-03-03T12:54:15.258Z,6.51
2018-03-03T12:55:15.305Z,6.59
2018-03-03T12:56:15.320Z,6.67
2018-03-03T12:57:15.252Z,6.74
2018-03-03T12:58:15.264Z,6.81
2018-03-03T12:59:15.270Z,6.87
2018-03-03T13:00:15.605Z,6.77
2018-03-03T13:01:15.267Z,6.8
2018-03-03T13:02:15.345Z,6.83
2018-03-03T13:03:15.328Z,6.9
2018-03-03T13:04:15.289Z,6.91
2018-03-03T13:05:15.295Z,6.88
2018-03-03T13:06:15.265Z,6.86
2018-03-03T13:07:15.317Z,6.97
2018-03-03T13:08:15.328Z,7
2018-03-03T13:09:15.307Z,7.03
2018-03-03T13:10:15.297Z,7.01
2018-03-03T13:11:15.313Z,7.03
2018-03-03T13:12:15.340Z,7.12
2018-03-03T13:13:15.295Z,7.17
2018-03-03T13:14:15.347Z,7.16
2018-03-03T13:15:15.303Z,6.96
2018-03-03T13:16:15.318Z,6.92
2018-03-03T13:17:15.340Z,6.95
2018-03-03T13:18:15.364Z,7.03
2018-03-03T13:19:15.341Z,7.13
2018-03-03T13:20:15.451Z,7.02
2018-03-03T13:21:15.532Z,7.11
2018-03-03T13:22:15.480Z,7.2
2018-03-03T13:23:15.465Z,7.13